sensor_id;sensor_type;location;lat;lon;timestamp;pressure;altitude;pressure_sealevel;temperature;humidity
5988;BME280;3021;51.000;6.980;2023-03-01T00:00:11;66285.38;;;-0.20;100.00
5988;BME280;3021;51.000;6.980;2023-03-01T00:02:37;66293.00;;;-0.11;100.00
5988;BME280;3021;51.000;6.980;2023-03-01T00:05:03;66300.69;;;-0.09;100.00
5988;BME280;3021;51.000;6.980;2023-03-01T00:07:28;66287.13;;;-0.19;100.00
5988;BME280;3021;51.000;6.980;2023-03-01T00:09:54;66283.13;;;-0.22;100.00
5988;BME280;3021;51.000;6.980;2023-03-01T00:12:20;66286.28;;;-0.14;100.00
5988;BME280;3021;51.000;6.980;2023-03-01T00:14:45;66281.56;;;-0.21;100.00
5988;BME280;3021;51.000;6.980;2023-03-01T00:17:10;66278.94;;;-0.28;100.00
5988;BME280;3021;51.000;6.980;2023-03-01T00:19:36;66274.75;;;-0.35;100.00
5988;BME280;3021;51.000;6.980;2023-03-01T00:22:02;66262.84;;;-0.36;100.00
5988;BME280;3021;51.000;6.980;2023-03-01T00:24:27;66258.50;;;-0.44;100.00
5988;BME280;3021;51.000;6.980;2023-03-01T00:26:54;66275.66;;;-0.29;100.00
5988;BME280;3021;51.000;6.980;2023-03-01T00:29:22;66277.97;;;-0.27;100.00
5988;BME280;3021;51.000;6.980;2023-03-01T00:31:47;66280.06;;;-0.27;100.00
5988;BME280;3021;51.000;6.980;2023-03-01T00:34:13;66272.56;;;-0.27;100.00
5988;BME280;3021;51.000;6.980;2023-03-01T00:36:38;66275.09;;;-0.29;100.00
5988;BME280;3021;51.000;6.980;2023-03-01T00:39:05;66270.69;;;-0.31;100.00
5988;BME280;3021;51.000;6.980;2023-03-01T00:41:32;66271.09;;;-0.33;100.00
5988;BME280;3021;51.000;6.980;2023-03-01T00:43:59;66263.66;;;-0.40;100.00
5988;BME280;3021;51.000;6.980;2023-03-01T00:46:26;66267.25;;;-0.34;100.00
5988;BME280;3021;51.000;6.980;2023-03-01T00:48:53;66254.09;;;-0.46;100.00
5988;BME280;3021;51.000;6.980;2023-03-01T00:51:26;66252.22;;;-0.50;100.00
5988;BME280;3021;51.000;6.980;2023-03-01T00:53:54;66235.97;;;-0.60;100.00
5988;BME280;3021;51.000;6.980;2023-03-01T00:56:20;66243.22;;;-0.56;100.00
5988;BME280;3021;51.000;6.980;2023-03-01T00:58:46;66244.34;;;-0.55;100.00
5988;BME280;3021;51.000;6.980;2023-03-01T01:01:17;66242.06;;;-0.57;100.00
5988;BME280;3021;51.000;6.980;2023-03-01T01:06:18;66245.50;;;-0.54;100.00
5988;BME280;3021;51.000;6.980;2023-03-01T01:08:44;66243.63;;;-0.58;100.00
5988;BME280;3021;51.000;6.980;2023-03-01T01:11:10;66247.28;;;-0.59;100.00
5988;BME280;3021;51.000;6.980;2023-03-01T01:13:37;66256.94;;;-0.43;100.00
5988;BME280;3021;51.000;6.980;2023-03-01T01:16:04;66254.66;;;-0.45;100.00
5988;BME280;3021;51.000;6.980;2023-03-01T01:18:29;66266.34;;;-0.40;100.00
5988;BME280;3021;51.000;6.980;2023-03-01T01:20:55;66261.22;;;-0.44;100.00
5988;BME280;3021;51.000;6.980;2023-03-01T01:23:20;66237.50;;;-0.61;100.00
5988;BME280;3021;51.000;6.980;2023-03-01T01:25:46;66232.91;;;-0.65;100.00
5988;BME280;3021;51.000;6.980;2023-03-01T01:28:11;66239.13;;;-0.69;100.00
5988;BME280;3021;51.000;6.980;2023-03-01T01:30:37;66225.47;;;-0.72;100.00
5988;BME280;3021;51.000;6.980;2023-03-01T01:33:02;66229.16;;;-0.73;100.00
5988;BME280;3021;51.000;6.980;2023-03-01T01:35:27;66235.78;;;-0.62;100.00
5988;BME280;3021;51.000;6.980;2023-03-01T01:37:53;66245.69;;;-0.51;100.00
5988;BME280;3021;51.000;6.980;2023-03-01T01:40:18;66256.03;;;-0.49;100.00
5988;BME280;3021;51.000;6.980;2023-03-01T01:42:44;66243.22;;;-0.56;100.00
5988;BME280;3021;51.000;6.980;2023-03-01T01:45:29;66234.63;;;-0.63;100.00
5988;BME280;3021;51.000;6.980;2023-03-01T01:47:59;66228.75;;;-0.71;100.00
5988;BME280;3021;51.000;6.980;2023-03-01T01:50:26;66222.63;;;-0.74;100.00
5988;BME280;3021;51.000;6.980;2023-03-01T01:52:53;66218.84;;;-0.82;100.00
5988;BME280;3021;51.000;6.980;2023-03-01T01:55:24;66208.34;;;-0.87;100.00
5988;BME280;3021;51.000;6.980;2023-03-01T01:57:56;66198.44;;;-0.98;100.00
5988;BME280;3021;51.000;6.980;2023-03-01T02:00:25;66179.88;;;-1.10;100.00
5988;BME280;3021;51.000;6.980;2023-03-01T02:03:14;66175.97;;;-1.21;100.00
5988;BME280;3021;51.000;6.980;2023-03-01T02:05:55;66159.53;;;-1.33;100.00
5988;BME280;3021;51.000;6.980;2023-03-01T02:08:26;66153.09;;;-1.42;100.00
5988;BME280;3021;51.000;6.980;2023-03-01T02:10:52;66143.38;;;-1.50;100.00
5988;BME280;3021;51.000;6.980;2023-03-01T02:13:19;66135.38;;;-1.58;100.00
5988;BME280;3021;51.000;6.980;2023-03-01T02:15:45;66130.78;;;-1.62;100.00
5988;BME280;3021;51.000;6.980;2023-03-01T02:18:14;66131.19;;;-1.64;100.00
5988;BME280;3021;51.000;6.980;2023-03-01T02:23:23;66104.28;;;-1.81;100.00
5988;BME280;3021;51.000;6.980;2023-03-01T02:26:01;66106.78;;;-1.83;100.00
5988;BME280;3021;51.000;6.980;2023-03-01T02:28:34;66097.41;;;-1.87;100.00
5988;BME280;3021;51.000;6.980;2023-03-01T02:31:01;66090.41;;;-1.96;100.00
5988;BME280;3021;51.000;6.980;2023-03-01T02:33:45;66082.78;;;-2.05;100.00
5988;BME280;3021;51.000;6.980;2023-03-01T02:36:17;66070.94;;;-2.13;100.00
5988;BME280;3021;51.000;6.980;2023-03-01T02:38:43;66064.66;;;-2.19;100.00
5988;BME280;3021;51.000;6.980;2023-03-01T02:41:11;66061.06;;;-2.24;100.00
5988;BME280;3021;51.000;6.980;2023-03-01T02:43:38;66051.53;;;-2.31;100.00
5988;BME280;3021;51.000;6.980;2023-03-01T02:46:24;66055.19;;;-2.32;100.00
5988;BME280;3021;51.000;6.980;2023-03-01T02:48:53;66051.78;;;-2.35;100.00
5988;BME280;3021;51.000;6.980;2023-03-01T02:51:37;66044.69;;;-2.37;100.00
5988;BME280;3021;51.000;6.980;2023-03-01T02:54:30;66038.56;;;-2.40;100.00
5988;BME280;3021;51.000;6.980;2023-03-01T02:56:57;66042.63;;;-2.44;100.00
5988;BME280;3021;51.000;6.980;2023-03-01T02:59:26;66038.63;;;-2.47;100.00
5988;BME280;3021;51.000;6.980;2023-03-01T03:01:54;66032.50;;;-2.50;100.00
5988;BME280;3021;51.000;6.980;2023-03-01T03:04:19;66036.91;;;-2.49;100.00
5988;BME280;3021;51.000;6.980;2023-03-01T03:06:47;66043.03;;;-2.46;100.00
5988;BME280;3021;51.000;6.980;2023-03-01T03:09:14;66049.66;;;-2.35;100.00
5988;BME280;3021;51.000;6.980;2023-03-01T03:11:40;66063.19;;;-2.25;100.00
5988;BME280;3021;51.000;6.980;2023-03-01T03:14:07;66060.69;;;-2.22;100.00
5988;BME280;3021;51.000;6.980;2023-03-01T03:16:42;66075.94;;;-2.11;100.00
5988;BME280;3021;51.000;6.980;2023-03-01T03:19:08;66087.13;;;-1.96;100.00
5988;BME280;3021;51.000;6.980;2023-03-01T03:21:34;66098.41;;;-1.88;100.00
5988;BME280;3021;51.000;6.980;2023-03-01T03:23:59;66103.19;;;-1.89;100.00
5988;BME280;3021;51.000;6.980;2023-03-01T03:26:25;66100.25;;;-1.84;100.00
5988;BME280;3021;51.000;6.980;2023-03-01T03:28:50;66106.22;;;-1.84;100.00
5988;BME280;3021;51.000;6.980;2023-03-01T03:31:16;66129.66;;;-1.87;100.00
5988;BME280;3021;51.000;6.980;2023-03-01T03:33:42;66092.25;;;-1.92;100.00
5988;BME280;3021;51.000;6.980;2023-03-01T03:36:07;66086.22;;;-2.02;100.00
5988;BME280;3021;51.000;6.980;2023-03-01T03:38:38;66084.66;;;-2.01;100.00
5988;BME280;3021;51.000;6.980;2023-03-01T03:41:06;66074.38;;;-2.10;100.00
5988;BME280;3021;51.000;6.980;2023-03-01T03:43:33;66068.25;;;-2.13;100.00
5988;BME280;3021;51.000;6.980;2023-03-01T03:45:59;66056.66;;;-2.26;100.00
5988;BME280;3021;51.000;6.980;2023-03-01T03:48:25;66041.59;;;-2.35;100.00
5988;BME280;3021;51.000;6.980;2023-03-01T03:50:53;66041.47;;;-2.45;100.00
5988;BME280;3021;51.000;6.980;2023-03-01T03:53:20;66028.53;;;-2.54;100.00
5988;BME280;3021;51.000;6.980;2023-03-01T03:55:46;66016.88;;;-2.59;100.00
5988;BME280;3021;51.000;6.980;2023-03-01T03:58:15;66014.25;;;-2.67;100.00
5988;BME280;3021;51.000;6.980;2023-03-01T04:00:43;66008.69;;;-2.69;100.00
5988;BME280;3021;51.000;6.980;2023-03-01T04:03:10;66015.59;;;-2.70;100.00
5988;BME280;3021;51.000;6.980;2023-03-01T04:05:37;66010.09;;;-2.73;100.00
5988;BME280;3021;51.000;6.980;2023-03-01T04:08:03;66007.00;;;-2.71;100.00
5988;BME280;3021;51.000;6.980;2023-03-01T04:10:37;66003.94;;;-2.76;100.00
5988;BME280;3021;51.000;6.980;2023-03-01T04:13:05;65999.00;;;-2.78;100.00
5988;BME280;3021;51.000;6.980;2023-03-01T04:15:31;66002.66;;;-2.80;100.00
5988;BME280;3021;51.000;6.980;2023-03-01T04:17:57;65996.53;;;-2.83;100.00
5988;BME280;3021;51.000;6.980;2023-03-01T04:20:26;65993.28;;;-2.83;100.00
5988;BME280;3021;51.000;6.980;2023-03-01T04:25:17;65996.38;;;-2.85;100.00
5988;BME280;3021;51.000;6.980;2023-03-01T04:27:43;65990.84;;;-2.88;100.00
5988;BME280;3021;51.000;6.980;2023-03-01T04:30:09;65987.59;;;-2.88;100.00
5988;BME280;3021;51.000;6.980;2023-03-01T04:32:35;65989.13;;;-2.89;100.00
5988;BME280;3021;51.000;6.980;2023-03-01T04:35:00;65995.22;;;-2.86;100.00
5988;BME280;3021;51.000;6.980;2023-03-01T04:37:26;65998.09;;;-2.84;100.00
5988;BME280;3021;51.000;6.980;2023-03-01T04:39:52;65991.25;;;-2.90;100.00
5988;BME280;3021;51.000;6.980;2023-03-01T04:42:18;65980.34;;;-2.92;100.00
5988;BME280;3021;51.000;6.980;2023-03-01T04:44:44;65986.50;;;-2.97;100.00
5988;BME280;3021;51.000;6.980;2023-03-01T04:47:10;65980.72;;;-2.95;100.00
5988;BME280;3021;51.000;6.980;2023-03-01T04:49:35;65974.44;;;-3.00;100.00
5988;BME280;3021;51.000;6.980;2023-03-01T04:52:01;65971.00;;;-3.03;100.00
5988;BME280;3021;51.000;6.980;2023-03-01T04:54:33;65976.56;;;-3.01;100.00
5988;BME280;3021;51.000;6.980;2023-03-01T04:56:59;65982.34;;;-3.03;100.00
5988;BME280;3021;51.000;6.980;2023-03-01T04:59:25;65960.34;;;-3.10;100.00
5988;BME280;3021;51.000;6.980;2023-03-01T05:01:52;65966.13;;;-3.13;100.00
5988;BME280;3021;51.000;6.980;2023-03-01T05:04:21;65951.22;;;-3.19;100.00
5988;BME280;3021;51.000;6.980;2023-03-01T05:06:46;65958.88;;;-3.17;100.00
5988;BME280;3021;51.000;6.980;2023-03-01T05:09:12;65957.91;;;-3.15;100.00
5988;BME280;3021;51.000;6.980;2023-03-01T05:11:37;65962.69;;;-3.16;100.00
5988;BME280;3021;51.000;6.980;2023-03-01T05:14:04;65965.75;;;-3.18;100.00
5988;BME280;3021;51.000;6.980;2023-03-01T05:16:30;65952.75;;;-3.20;100.00
5988;BME280;3021;51.000;6.980;2023-03-01T05:18:57;65953.88;;;-3.19;100.00
5988;BME280;3021;51.000;6.980;2023-03-01T05:21:23;65965.94;;;-3.15;100.00
5988;BME280;3021;51.000;6.980;2023-03-01T05:23:48;65953.88;;;-3.19;100.00
5988;BME280;3021;51.000;6.980;2023-03-01T05:26:15;65951.63;;;-3.21;100.00
5988;BME280;3021;51.000;6.980;2023-03-01T05:28:40;65950.88;;;-3.24;100.00
5988;BME280;3021;51.000;6.980;2023-03-01T05:31:07;65943.63;;;-3.28;100.00
5988;BME280;3021;51.000;6.980;2023-03-01T05:33:38;65944.59;;;-3.30;100.00
5988;BME280;3021;51.000;6.980;2023-03-01T05:36:05;65937.16;;;-3.36;100.00
5988;BME280;3021;51.000;6.980;2023-03-01T05:38:31;65938.31;;;-3.35;100.00
5988;BME280;3021;51.000;6.980;2023-03-01T05:40:56;65942.53;;;-3.36;100.00
5988;BME280;3021;51.000;6.980;2023-03-01T05:43:22;65933.19;;;-3.40;100.00
5988;BME280;3021;51.000;6.980;2023-03-01T05:45:47;65962.69;;;-3.40;100.00
5988;BME280;3021;51.000;6.980;2023-03-01T05:48:13;65936.59;;;-3.37;100.00
5988;BME280;3021;51.000;6.980;2023-03-01T05:50:42;65944.97;;;-3.32;100.00
5988;BME280;3021;51.000;6.980;2023-03-01T05:53:19;65940.03;;;-3.34;100.00
5988;BME280;3021;51.000;6.980;2023-03-01T05:55:48;65930.50;;;-3.40;100.00
5988;BME280;3021;51.000;6.980;2023-03-01T05:58:16;65932.44;;;-3.43;100.00
5988;BME280;3021;51.000;6.980;2023-03-01T06:00:44;65930.72;;;-3.44;100.00
5988;BME280;3021;51.000;6.980;2023-03-01T06:03:11;65919.84;;;-3.47;100.00
5988;BME280;3021;51.000;6.980;2023-03-01T06:05:38;65933.81;;;-3.47;100.00
5988;BME280;3021;51.000;6.980;2023-03-01T06:08:04;65927.66;;;-3.42;100.00
5988;BME280;3021;51.000;6.980;2023-03-01T06:10:30;65928.22;;;-3.42;100.00
5988;BME280;3021;51.000;6.980;2023-03-01T06:12:55;65933.97;;;-3.44;100.00
5988;BME280;3021;51.000;6.980;2023-03-01T06:15:22;65929.94;;;-3.40;100.00
5988;BME280;3021;51.000;6.980;2023-03-01T06:17:47;65933.75;;;-3.39;100.00
5988;BME280;3021;51.000;6.980;2023-03-01T06:20:16;65929.53;;;-3.38;100.00
5988;BME280;3021;51.000;6.980;2023-03-01T06:22:44;65935.88;;;-3.40;100.00
5988;BME280;3021;51.000;6.980;2023-03-01T06:25:11;65937.59;;;-3.38;100.00
5988;BME280;3021;51.000;6.980;2023-03-01T06:27:37;65937.16;;;-3.36;100.00
5988;BME280;3021;51.000;6.980;2023-03-01T06:30:03;65937.75;;;-3.36;100.00
5988;BME280;3021;51.000;6.980;2023-03-01T06:32:29;65944.41;;;-3.32;100.00
5988;BME280;3021;51.000;6.980;2023-03-01T06:34:55;65945.75;;;-3.28;100.00
5988;BME280;3021;51.000;6.980;2023-03-01T06:37:20;65951.44;;;-3.23;100.00
5988;BME280;3021;51.000;6.980;2023-03-01T06:39:46;65954.47;;;-3.18;100.00
5988;BME280;3021;51.000;6.980;2023-03-01T06:42:11;65966.69;;;-3.12;100.00
5988;BME280;3021;51.000;6.980;2023-03-01T06:44:37;65973.94;;;-3.08;100.00
5988;BME280;3021;51.000;6.980;2023-03-01T06:47:04;65974.28;;;-3.03;100.00
5988;BME280;3021;51.000;6.980;2023-03-01T06:49:29;65982.28;;;-2.96;100.00
5988;BME280;3021;51.000;6.980;2023-03-01T06:51:55;65986.44;;;-2.89;100.00
5988;BME280;3021;51.000;6.980;2023-03-01T06:54:21;65995.00;;;-2.82;100.00
5988;BME280;3021;51.000;6.980;2023-03-01T06:56:49;66007.22;;;-2.75;100.00
5988;BME280;3021;51.000;6.980;2023-03-01T06:59:16;66014.25;;;-2.67;100.00
5988;BME280;3021;51.000;6.980;2023-03-01T07:01:42;66029.31;;;-2.58;100.00
5988;BME280;3021;51.000;6.980;2023-03-01T07:04:07;66036.91;;;-2.49;100.00
5988;BME280;3021;51.000;6.980;2023-03-01T07:06:33;66048.91;;;-2.38;100.00
5988;BME280;3021;51.000;6.980;2023-03-01T07:08:58;66049.81;;;-2.32;100.00
5988;BME280;3021;51.000;6.980;2023-03-01T07:11:24;66055.53;;;-2.27;100.00
5988;BME280;3021;51.000;6.980;2023-03-01T07:13:49;66070.22;;;-2.16;100.00
5988;BME280;3021;51.000;6.980;2023-03-01T07:16:15;66087.34;;;-2.01;100.00
5988;BME280;3021;51.000;6.980;2023-03-01T07:18:41;66106.97;;;-1.81;100.00
5988;BME280;3021;51.000;6.980;2023-03-01T07:21:08;66133.09;;;-1.60;100.00
5988;BME280;3021;51.000;6.980;2023-03-01T07:23:34;66147.53;;;-1.44;100.00
5988;BME280;3021;51.000;6.980;2023-03-01T07:26:00;66161.59;;;-1.27;100.00
5988;BME280;3021;51.000;6.980;2023-03-01T07:28:26;66188.13;;;-1.08;100.00
5988;BME280;3021;51.000;6.980;2023-03-01T07:30:52;66211.75;;;-0.84;100.00
5988;BME280;3021;51.000;6.980;2023-03-01T07:33:18;66240.94;;;-0.58;100.00
5988;BME280;3021;51.000;6.980;2023-03-01T07:35:43;66270.28;;;-0.29;100.00
5988;BME280;3021;51.000;6.980;2023-03-01T07:38:09;66309.78;;;0.07;100.00
5988;BME280;3021;51.000;6.980;2023-03-01T07:40:34;66340.13;;;0.34;100.00
5988;BME280;3021;51.000;6.980;2023-03-01T07:43:00;66391.50;;;0.78;100.00
5988;BME280;3021;51.000;6.980;2023-03-01T07:45:29;66434.06;;;1.18;100.00
5988;BME280;3021;51.000;6.980;2023-03-01T07:47:58;66483.78;;;1.61;100.00
5988;BME280;3021;51.000;6.980;2023-03-01T07:50:23;66637.84;;;3.04;100.00
5988;BME280;3021;51.000;6.980;2023-03-01T07:52:50;66943.19;;;5.80;100.00
5988;BME280;3021;51.000;6.980;2023-03-01T07:55:16;67224.78;;;8.29;100.00
5988;BME280;3021;51.000;6.980;2023-03-01T08:21:09;68335.00;;;18.23;95.67
5988;BME280;3021;51.000;6.980;2023-03-01T08:23:35;68356.03;;;18.44;89.44
5988;BME280;3021;51.000;6.980;2023-03-01T08:26:05;68182.72;;;16.88;88.37
5988;BME280;3021;51.000;6.980;2023-03-01T08:28:31;67976.50;;;15.03;91.57
5988;BME280;3021;51.000;6.980;2023-03-01T08:30:57;67813.03;;;13.58;95.24
5988;BME280;3021;51.000;6.980;2023-03-01T08:33:23;67520.16;;;10.97;98.39
5988;BME280;3021;51.000;6.980;2023-03-01T08:35:49;67443.16;;;10.26;100.00
5988;BME280;3021;51.000;6.980;2023-03-01T08:38:14;67440.84;;;10.24;100.00
5988;BME280;3021;51.000;6.980;2023-03-01T08:40:40;67341.34;;;9.33;100.00
5988;BME280;3021;51.000;6.980;2023-03-01T08:43:05;67238.22;;;8.43;100.00
5988;BME280;3021;51.000;6.980;2023-03-01T08:45:31;67294.59;;;8.91;100.00
5988;BME280;3021;51.000;6.980;2023-03-01T08:47:57;67286.53;;;8.84;100.00
5988;BME280;3021;51.000;6.980;2023-03-01T08:50:23;67206.91;;;8.13;100.00
5988;BME280;3021;51.000;6.980;2023-03-01T08:52:49;67310.91;;;9.08;100.00
5988;BME280;3021;51.000;6.980;2023-03-01T08:55:15;67338.03;;;9.32;100.00
5988;BME280;3021;51.000;6.980;2023-03-01T08:57:42;67343.97;;;9.40;100.00
5988;BME280;3021;51.000;6.980;2023-03-01T09:00:08;67425.81;;;10.11;100.00
5988;BME280;3021;51.000;6.980;2023-03-01T09:02:34;67393.47;;;9.82;100.00
5988;BME280;3021;51.000;6.980;2023-03-01T09:05:00;67381.91;;;9.72;100.00
5988;BME280;3021;51.000;6.980;2023-03-01T09:07:26;67425.81;;;10.11;100.00
5988;BME280;3021;51.000;6.980;2023-03-01T09:09:53;67544.47;;;11.19;100.00
5988;BME280;3021;51.000;6.980;2023-03-01T09:12:19;67624.69;;;11.88;100.00
5988;BME280;3021;51.000;6.980;2023-03-01T09:14:45;67749.28;;;13.01;99.27
5988;BME280;3021;51.000;6.980;2023-03-01T09:17:10;67760.75;;;13.09;98.56
5988;BME280;3021;51.000;6.980;2023-03-01T09:19:36;67694.72;;;12.50;99.21
5988;BME280;3021;51.000;6.980;2023-03-01T09:22:03;67688.34;;;12.44;98.65
5988;BME280;3021;51.000;6.980;2023-03-01T09:24:28;67756.38;;;13.10;98.49
5988;BME280;3021;51.000;6.980;2023-03-01T09:26:55;68056.56;;;15.74;94.57
5988;BME280;3021;51.000;6.980;2023-03-01T09:29:21;68301.84;;;17.94;88.34
5988;BME280;3021;51.000;6.980;2023-03-01T09:31:47;68405.81;;;18.83;85.74
5988;BME280;3021;51.000;6.980;2023-03-01T09:34:12;68536.94;;;20.02;82.30
5988;BME280;3021;51.000;6.980;2023-03-01T09:36:41;68682.69;;;21.33;76.24
5988;BME280;3021;51.000;6.980;2023-03-01T09:39:07;68701.81;;;21.48;75.89
5988;BME280;3021;51.000;6.980;2023-03-01T09:44:28;68997.78;;;24.11;68.28
5988;BME280;3021;51.000;6.980;2023-03-01T09:46:56;69098.75;;;24.98;65.39
5988;BME280;3021;51.000;6.980;2023-03-01T09:49:27;69235.69;;;26.21;61.84
5988;BME280;3021;51.000;6.980;2023-03-01T09:52:06;69166.69;;;25.60;60.46
5988;BME280;3021;51.000;6.980;2023-03-01T09:54:37;69164.22;;;25.56;58.60
5988;BME280;3021;51.000;6.980;2023-03-01T09:57:10;69159.78;;;25.57;58.77
5988;BME280;3021;51.000;6.980;2023-03-01T10:02:42;69042.75;;;24.51;58.41
5988;BME280;3021;51.000;6.980;2023-03-01T10:11:00;69089.41;;;24.90;55.34
5988;BME280;3021;51.000;6.980;2023-03-01T10:16:50;68853.56;;;22.84;57.95
5988;BME280;3021;51.000;6.980;2023-03-01T10:21:59;69072.44;;;24.75;55.83
5988;BME280;3021;51.000;6.980;2023-03-01T10:24:35;69140.84;;;25.35;55.44
5988;BME280;3021;51.000;6.980;2023-03-01T10:27:05;69199.31;;;25.86;54.42
5988;BME280;3021;51.000;6.980;2023-03-01T10:29:54;69078.78;;;24.78;53.58
5988;BME280;3021;51.000;6.980;2023-03-01T10:32:24;68951.66;;;23.71;55.56
5988;BME280;3021;51.000;6.980;2023-03-01T10:34:50;69143.06;;;25.34;56.23
5988;BME280;3021;51.000;6.980;2023-03-01T10:37:18;69448.06;;;28.05;51.32
5988;BME280;3021;51.000;6.980;2023-03-01T10:40:05;69337.50;;;27.11;49.29
5988;BME280;3021;51.000;6.980;2023-03-01T10:42:39;69213.94;;;25.99;50.71
5988;BME280;3021;51.000;6.980;2023-03-01T10:45:32;69260.16;;;26.40;50.44
5988;BME280;3021;51.000;6.980;2023-03-01T10:50:41;69289.88;;;26.64;48.48
5988;BME280;3021;51.000;6.980;2023-03-01T10:53:23;68688.38;;;21.36;53.95
5988;BME280;3021;51.000;6.980;2023-03-01T10:56:11;68914.28;;;23.38;54.04
5988;BME280;3021;51.000;6.980;2023-03-01T10:59:03;69030.38;;;24.38;51.30
5988;BME280;3021;51.000;6.980;2023-03-01T11:01:32;68986.56;;;23.99;51.59
5988;BME280;3021;51.000;6.980;2023-03-01T11:06:36;68068.50;;;15.80;62.26
5988;BME280;3021;51.000;6.980;2023-03-01T11:09:20;67643.97;;;12.07;71.35
5988;BME280;3021;51.000;6.980;2023-03-01T11:11:46;67455.88;;;10.37;79.13
5988;BME280;3021;51.000;6.980;2023-03-01T11:14:28;67350.03;;;9.41;84.62
5988;BME280;3021;51.000;6.980;2023-03-01T11:17:05;67242.69;;;8.45;88.88
5988;BME280;3021;51.000;6.980;2023-03-01T11:19:31;67198.69;;;8.03;93.42
5988;BME280;3021;51.000;6.980;2023-03-01T11:22:04;67203.31;;;8.07;97.36
5988;BME280;3021;51.000;6.980;2023-03-01T11:26:57;67186.00;;;7.92;98.35
5988;BME280;3021;51.000;6.980;2023-03-01T11:29:37;67172.88;;;7.83;99.56
5988;BME280;3021;51.000;6.980;2023-03-01T11:32:08;67191.03;;;7.94;100.00
5988;BME280;3021;51.000;6.980;2023-03-01T11:37:44;67163.34;;;7.69;100.00
5988;BME280;3021;51.000;6.980;2023-03-01T11:40:21;67163.50;;;7.72;100.00
5988;BME280;3021;51.000;6.980;2023-03-01T11:48:31;67138.88;;;7.52;100.00
5988;BME280;3021;51.000;6.980;2023-03-01T11:51:09;67151.97;;;7.61;100.00
5988;BME280;3021;51.000;6.980;2023-03-01T11:53:56;67149.69;;;7.59;100.00
5988;BME280;3021;51.000;6.980;2023-03-01T11:56:43;67152.72;;;7.65;100.00
5988;BME280;3021;51.000;6.980;2023-03-01T12:07:49;67151.97;;;7.61;100.00
5988;BME280;3021;51.000;6.980;2023-03-01T12:10:26;67142.19;;;7.53;100.00
5988;BME280;3021;51.000;6.980;2023-03-01T12:15:41;67163.66;;;7.74;100.00
5988;BME280;3021;51.000;6.980;2023-03-01T12:26:12;67139.88;;;7.51;100.00
5988;BME280;3021;51.000;6.980;2023-03-01T12:37:42;67142.91;;;7.56;100.00
5988;BME280;3021;51.000;6.980;2023-03-01T12:48:15;67180.94;;;7.90;100.00
5988;BME280;3021;51.000;6.980;2023-03-01T12:50:45;67197.09;;;8.04;100.00
5988;BME280;3021;51.000;6.980;2023-03-01T12:53:46;67212.50;;;8.16;100.00
5988;BME280;3021;51.000;6.980;2023-03-01T12:56:16;67204.03;;;8.10;100.00
5988;BME280;3021;51.000;6.980;2023-03-01T12:58:55;67200.28;;;8.12;100.00
5988;BME280;3021;51.000;6.980;2023-03-01T13:09:31;67205.59;;;8.09;100.00
5988;BME280;3021;51.000;6.980;2023-03-01T13:11:58;67214.56;;;8.22;100.00
5988;BME280;3021;51.000;6.980;2023-03-01T13:16:51;67222.31;;;8.24;100.00
5988;BME280;3021;51.000;6.980;2023-03-01T13:19:22;67219.00;;;8.24;100.00
5988;BME280;3021;51.000;6.980;2023-03-01T13:21:49;67217.28;;;8.22;100.00
5988;BME280;3021;51.000;6.980;2023-03-01T13:35:06;67225.34;;;8.29;100.00
5988;BME280;3021;51.000;6.980;2023-03-01T13:37:48;67221.34;;;8.26;100.00
5988;BME280;3021;51.000;6.980;2023-03-01T13:42:53;67222.63;;;8.29;100.00
5988;BME280;3021;51.000;6.980;2023-03-01T13:47:55;67227.25;;;8.34;100.00
5988;BME280;3021;51.000;6.980;2023-03-01T13:50:25;67228.97;;;8.35;100.00
5988;BME280;3021;51.000;6.980;2023-03-01T13:55:24;67227.66;;;8.31;100.00
5988;BME280;3021;51.000;6.980;2023-03-01T13:57:55;67232.44;;;8.38;100.00
5988;BME280;3021;51.000;6.980;2023-03-01T14:00:30;67231.72;;;8.35;100.00
5988;BME280;3021;51.000;6.980;2023-03-01T14:03:04;67251.78;;;8.51;100.00
5988;BME280;3021;51.000;6.980;2023-03-01T14:05:32;67250.75;;;8.52;99.06
5988;BME280;3021;51.000;6.980;2023-03-01T14:07:57;67240.22;;;8.40;100.00
5988;BME280;3021;51.000;6.980;2023-03-01T14:10:27;67246.72;;;8.48;99.43
5988;BME280;3021;51.000;6.980;2023-03-01T14:15:35;67267.91;;;8.65;100.00
5988;BME280;3021;51.000;6.980;2023-03-01T14:20:37;67266.34;;;8.66;100.00
5988;BME280;3021;51.000;6.980;2023-03-01T14:23:10;67262.28;;;8.62;100.00
5988;BME280;3021;51.000;6.980;2023-03-01T14:25:37;67263.63;;;8.66;100.00
5988;BME280;3021;51.000;6.980;2023-03-01T14:30:43;67258.84;;;8.59;100.00
5988;BME280;3021;51.000;6.980;2023-03-01T14:35:56;67254.38;;;8.58;100.00
5988;BME280;3021;51.000;6.980;2023-03-01T14:38:28;67257.69;;;8.58;100.00
5988;BME280;3021;51.000;6.980;2023-03-01T14:40:57;67247.47;;;8.52;100.00
5988;BME280;3021;51.000;6.980;2023-03-01T14:43:24;67249.59;;;8.51;100.00
5988;BME280;3021;51.000;6.980;2023-03-01T14:45:51;67250.19;;;8.52;100.00
5988;BME280;3021;51.000;6.980;2023-03-01T14:48:17;67249.59;;;8.51;100.00
5988;BME280;3021;51.000;6.980;2023-03-01T14:50:44;67239.38;;;8.44;100.00
5988;BME280;3021;51.000;6.980;2023-03-01T14:53:20;67229.41;;;8.33;100.00
5988;BME280;3021;51.000;6.980;2023-03-01T14:56:00;67214.41;;;8.20;100.00
5988;BME280;3021;51.000;6.980;2023-03-01T14:58:32;67215.84;;;8.16;100.00
5988;BME280;3021;51.000;6.980;2023-03-01T15:01:02;67205.59;;;8.09;100.00
5988;BME280;3021;51.000;6.980;2023-03-01T15:03:34;67206.91;;;8.13;100.00
5988;BME280;3021;51.000;6.980;2023-03-01T15:06:03;67198.97;;;8.08;100.00
5988;BME280;3021;51.000;6.980;2023-03-01T15:08:31;67195.53;;;8.05;100.00
5988;BME280;3021;51.000;6.980;2023-03-01T15:11:04;67199.97;;;8.07;100.00
5988;BME280;3021;51.000;6.980;2023-03-01T15:13:32;67197.09;;;8.04;100.00
5988;BME280;3021;51.000;6.980;2023-03-01T15:16:19;67191.34;;;7.99;100.00
5988;BME280;3021;51.000;6.980;2023-03-01T15:18:48;67195.97;;;8.03;100.00
5988;BME280;3021;51.000;6.980;2023-03-01T15:21:15;67200.56;;;8.07;100.00
5988;BME280;3021;51.000;6.980;2023-03-01T15:23:49;67202.31;;;8.09;100.00
5988;BME280;3021;51.000;6.980;2023-03-01T15:26:40;67204.03;;;8.10;100.00
5988;BME280;3021;51.000;6.980;2023-03-01T15:29:18;67192.47;;;8.00;100.00
5988;BME280;3021;51.000;6.980;2023-03-01T15:31:56;67188.44;;;7.96;100.00
5988;BME280;3021;51.000;6.980;2023-03-01T15:34:25;67190.75;;;7.99;100.00
5988;BME280;3021;51.000;6.980;2023-03-01T15:36:53;67178.06;;;7.87;100.00
5988;BME280;3021;51.000;6.980;2023-03-01T15:39:39;67178.50;;;7.85;100.00
5988;BME280;3021;51.000;6.980;2023-03-01T15:45:31;67155.59;;;7.67;100.00
5988;BME280;3021;51.000;6.980;2023-03-01T15:48:14;67159.06;;;7.70;100.00